sensor_id;sensor_type;location;lat;lon;timestamp;pressure;altitude;pressure_sealevel;temperature;humidity
76397;BME280;66045;51.622;5.526;2023-01-15T00:01:37;99897.13;;;18.14;54.05
76397;BME280;66045;51.622;5.526;2023-01-15T00:04:04;99909.53;;;18.15;54.22
76397;BME280;66045;51.622;5.526;2023-01-15T00:06:31;99907.00;;;18.12;54.18
76397;BME280;66045;51.622;5.526;2023-01-15T00:08:59;99904.34;;;18.12;53.83
76397;BME280;66045;51.622;5.526;2023-01-15T00:11:24;99897.25;;;18.11;54.01
76397;BME280;66045;51.622;5.526;2023-01-15T00:13:50;99899.25;;;18.06;54.35
76397;BME280;66045;51.622;5.526;2023-01-15T00:16:18;99901.88;;;18.07;54.29
76397;BME280;66045;51.622;5.526;2023-01-15T00:18:49;99904.59;;;18.06;53.78
76397;BME280;66045;51.622;5.526;2023-01-15T00:21:14;99907.31;;;18.04;53.70
76397;BME280;66045;51.622;5.526;2023-01-15T00:23:40;99899.38;;;18.03;53.99
76397;BME280;66045;51.622;5.526;2023-01-15T00:26:28;99907.47;;;18.01;54.30
76397;BME280;66045;51.622;5.526;2023-01-15T00:29:13;99897.72;;;18.00;54.01
76397;BME280;66045;51.622;5.526;2023-01-15T00:31:38;99896.84;;;18.00;54.14
76397;BME280;66045;51.622;5.526;2023-01-15T00:34:04;99898.78;;;17.96;53.64
76397;BME280;66045;51.622;5.526;2023-01-15T00:36:29;99889.00;;;17.97;54.14
76397;BME280;66045;51.622;5.526;2023-01-15T00:38:55;99904.16;;;17.95;54.10
76397;BME280;66045;51.622;5.526;2023-01-15T00:41:21;99894.38;;;17.95;54.61
76397;BME280;66045;51.622;5.526;2023-01-15T00:43:46;99898.94;;;17.93;54.18
76397;BME280;66045;51.622;5.526;2023-01-15T00:46:11;99912.28;;;17.92;53.87
76397;BME280;66045;51.622;5.526;2023-01-15T00:48:37;99910.63;;;17.89;54.34
76397;BME280;66045;51.622;5.526;2023-01-15T00:51:03;99908.91;;;17.88;53.97
76397;BME280;66045;51.622;5.526;2023-01-15T00:53:29;99922.25;;;17.86;54.37
76397;BME280;66045;51.622;5.526;2023-01-15T00:55:55;99919.59;;;17.86;54.53
76397;BME280;66045;51.622;5.526;2023-01-15T00:58:21;99910.81;;;17.84;54.37
76397;BME280;66045;51.622;5.526;2023-01-15T01:00:52;99926.78;;;17.84;54.29
76397;BME280;66045;51.622;5.526;2023-01-15T01:03:17;99918.84;;;17.83;54.31
76397;BME280;66045;51.622;5.526;2023-01-15T01:05:42;99920.66;;;17.82;54.07
76397;BME280;66045;51.622;5.526;2023-01-15T01:08:08;99919.84;;;17.80;54.43
76397;BME280;66045;51.622;5.526;2023-01-15T01:10:33;99920.72;;;17.81;54.62
76397;BME280;66045;51.622;5.526;2023-01-15T01:12:58;99911.94;;;17.79;54.44
76397;BME280;66045;51.622;5.526;2023-01-15T01:15:24;99918.16;;;17.78;54.01
76397;BME280;66045;51.622;5.526;2023-01-15T01:17:50;99911.16;;;17.75;54.31
76397;BME280;66045;51.622;5.526;2023-01-15T01:20:16;99920.03;;;17.76;54.08
76397;BME280;66045;51.622;5.526;2023-01-15T01:22:42;99915.59;;;17.75;54.43
76397;BME280;66045;51.622;5.526;2023-01-15T01:25:08;99914.81;;;17.73;54.50
76397;BME280;66045;51.622;5.526;2023-01-15T01:27:34;99922.78;;;17.73;54.52
76397;BME280;66045;51.622;5.526;2023-01-15T01:29:59;99915.75;;;17.72;53.95
76397;BME280;66045;51.622;5.526;2023-01-15T01:32:24;99908.69;;;17.71;54.42
76397;BME280;66045;51.622;5.526;2023-01-15T01:34:50;99920.25;;;17.70;53.95
76397;BME280;66045;51.622;5.526;2023-01-15T01:37:15;99912.34;;;17.68;53.91
76397;BME280;66045;51.622;5.526;2023-01-15T01:39:41;99907.06;;;17.66;54.44
76397;BME280;66045;51.622;5.526;2023-01-15T01:42:14;99925.69;;;17.66;54.69
76397;BME280;66045;51.622;5.526;2023-01-15T01:47:13;99918.69;;;17.64;54.54
76397;BME280;66045;51.622;5.526;2023-01-15T01:49:40;99921.38;;;17.64;54.22
76397;BME280;66045;51.622;5.526;2023-01-15T01:52:11;99924.22;;;17.59;54.02
76397;BME280;66045;51.622;5.526;2023-01-15T01:54:38;99923.28;;;17.60;54.65
76397;BME280;66045;51.622;5.526;2023-01-15T01:57:05;99911.78;;;17.60;54.59
76397;BME280;66045;51.622;5.526;2023-01-15T01:59:32;99921.56;;;17.59;54.54
76397;BME280;66045;51.622;5.526;2023-01-15T02:01:58;99911.84;;;17.58;54.30
76397;BME280;66045;51.622;5.526;2023-01-15T02:04:25;99927.88;;;17.57;54.01
76397;BME280;66045;51.622;5.526;2023-01-15T02:06:52;99917.28;;;17.55;54.29
76397;BME280;66045;51.622;5.526;2023-01-15T02:09:18;99925.25;;;17.55;54.30
76397;BME280;66045;51.622;5.526;2023-01-15T02:11:43;99926.22;;;17.54;54.42
76397;BME280;66045;51.622;5.526;2023-01-15T02:14:11;99926.25;;;17.53;54.50
76397;BME280;66045;51.622;5.526;2023-01-15T02:22:03;99915.59;;;17.53;54.40
76397;BME280;66045;51.622;5.526;2023-01-15T02:27:21;99905.97;;;17.50;54.06
76397;BME280;66045;51.622;5.526;2023-01-15T02:30:03;99907.75;;;17.50;54.31
76397;BME280;66045;51.622;5.526;2023-01-15T02:32:38;99914.00;;;17.49;54.54
76397;BME280;66045;51.622;5.526;2023-01-15T02:35:33;99911.28;;;17.50;54.44
76397;BME280;66045;51.622;5.526;2023-01-15T02:38:04;99908.81;;;17.45;54.71
76397;BME280;66045;51.622;5.526;2023-01-15T02:40:31;99898.22;;;17.44;54.35
76397;BME280;66045;51.622;5.526;2023-01-15T02:42:58;99894.75;;;17.42;54.39
76397;BME280;66045;51.622;5.526;2023-01-15T02:45:32;99893.84;;;17.43;54.56
76397;BME280;66045;51.622;5.526;2023-01-15T02:48:10;99898.34;;;17.41;54.64
76397;BME280;66045;51.622;5.526;2023-01-15T02:50:40;99899.28;;;17.40;54.32
76397;BME280;66045;51.622;5.526;2023-01-15T02:53:11;99892.28;;;17.37;54.34
76397;BME280;66045;51.622;5.526;2023-01-15T02:55:42;99885.22;;;17.36;54.62
76397;BME280;66045;51.622;5.526;2023-01-15T02:58:11;99894.97;;;17.37;54.37
76397;BME280;66045;51.622;5.526;2023-01-15T03:00:40;99891.34;;;17.38;54.56
76397;BME280;66045;51.622;5.526;2023-01-15T03:03:12;99894.97;;;17.37;54.63
76397;BME280;66045;51.622;5.526;2023-01-15T03:05:47;99894.25;;;17.32;54.19
76397;BME280;66045;51.622;5.526;2023-01-15T03:08:15;99899.47;;;17.35;54.41
76397;BME280;66045;51.622;5.526;2023-01-15T03:10:47;99900.41;;;17.34;54.62
76397;BME280;66045;51.622;5.526;2023-01-15T03:13:25;99911.91;;;17.35;54.25
76397;BME280;66045;51.622;5.526;2023-01-15T03:16:06;99899.59;;;17.32;54.39
76397;BME280;66045;51.622;5.526;2023-01-15T03:24:09;99912.06;;;17.30;54.29
76397;BME280;66045;51.622;5.526;2023-01-15T03:26:35;99894.38;;;17.29;54.35
76397;BME280;66045;51.622;5.526;2023-01-15T03:29:03;99885.69;;;17.26;54.50
76397;BME280;66045;51.622;5.526;2023-01-15T03:31:30;99881.13;;;17.28;54.36
76397;BME280;66045;51.622;5.526;2023-01-15T03:33:57;99883.78;;;17.28;54.64
76397;BME280;66045;51.622;5.526;2023-01-15T03:36:22;99880.34;;;17.26;54.48
76397;BME280;66045;51.622;5.526;2023-01-15T03:38:48;99876.03;;;17.23;54.66
76397;BME280;66045;51.622;5.526;2023-01-15T03:46:44;99892.84;;;17.23;54.86
76397;BME280;66045;51.622;5.526;2023-01-15T03:49:46;99880.47;;;17.22;54.42
76397;BME280;66045;51.622;5.526;2023-01-15T03:52:29;99884.97;;;17.20;54.52
76397;BME280;66045;51.622;5.526;2023-01-15T03:57:29;99881.50;;;17.18;54.42
76397;BME280;66045;51.622;5.526;2023-01-15T04:00:06;99877.13;;;17.17;54.37
76397;BME280;66045;51.622;5.526;2023-01-15T04:02:33;99870.06;;;17.16;54.72
76397;BME280;66045;51.622;5.526;2023-01-15T04:05:01;99870.13;;;17.15;54.75
76397;BME280;66045;51.622;5.526;2023-01-15T04:07:27;99865.69;;;17.15;54.76
76397;BME280;66045;51.622;5.526;2023-01-15T04:09:54;99864.00;;;17.13;54.69
76397;BME280;66045;51.622;5.526;2023-01-15T04:12:20;99854.34;;;17.10;54.03
76397;BME280;66045;51.622;5.526;2023-01-15T04:14:45;99869.31;;;17.13;54.73
76397;BME280;66045;51.622;5.526;2023-01-15T04:17:10;99866.66;;;17.13;54.77
76397;BME280;66045;51.622;5.526;2023-01-15T04:19:36;99865.84;;;17.11;54.32
76397;BME280;66045;51.622;5.526;2023-01-15T04:22:01;99878.28;;;17.10;54.53
76397;BME280;66045;51.622;5.526;2023-01-15T04:24:26;99868.59;;;17.09;54.48
76397;BME280;66045;51.622;5.526;2023-01-15T04:26:52;99870.38;;;17.09;54.38
76397;BME280;66045;51.622;5.526;2023-01-15T04:29:17;99865.97;;;17.08;54.74
76397;BME280;66045;51.622;5.526;2023-01-15T04:31:43;99865.97;;;17.08;54.29
76397;BME280;66045;51.622;5.526;2023-01-15T04:34:08;99869.56;;;17.07;54.29
76397;BME280;66045;51.622;5.526;2023-01-15T04:36:33;99863.38;;;17.06;54.49
76397;BME280;66045;51.622;5.526;2023-01-15T04:39:03;99869.69;;;17.04;54.18
76397;BME280;66045;51.622;5.526;2023-01-15T04:41:29;99863.44;;;17.05;54.20
76397;BME280;66045;51.622;5.526;2023-01-15T04:44:13;99874.94;;;17.05;54.26
76397;BME280;66045;51.622;5.526;2023-01-15T04:46:41;99870.56;;;17.04;54.18
76397;BME280;66045;51.622;5.526;2023-01-15T04:49:10;99886.50;;;17.04;54.36
76397;BME280;66045;51.622;5.526;2023-01-15T04:51:36;99879.47;;;17.03;54.61
76397;BME280;66045;51.622;5.526;2023-01-15T04:54:04;99887.44;;;17.03;54.08
76397;BME280;66045;51.622;5.526;2023-01-15T04:56:30;99879.50;;;17.02;54.60
76397;BME280;66045;51.622;5.526;2023-01-15T04:58:58;99882.25;;;17.00;54.54
76397;BME280;66045;51.622;5.526;2023-01-15T05:01:24;99880.50;;;16.99;54.36
76397;BME280;66045;51.622;5.526;2023-01-15T05:03:50;99887.56;;;17.00;54.36
76397;BME280;66045;51.622;5.526;2023-01-15T05:06:15;99877.84;;;16.99;54.23
76397;BME280;66045;51.622;5.526;2023-01-15T05:08:42;99894.72;;;16.98;54.19
76397;BME280;66045;51.622;5.526;2023-01-15T05:11:08;99905.34;;;16.98;54.38
76397;BME280;66045;51.622;5.526;2023-01-15T05:13:33;99902.81;;;16.95;54.46
76397;BME280;66045;51.622;5.526;2023-01-15T05:16:24;99901.00;;;16.95;54.40
76397;BME280;66045;51.622;5.526;2023-01-15T05:18:52;99902.00;;;16.93;54.41
76397;BME280;66045;51.622;5.526;2023-01-15T05:21:20;99897.53;;;16.93;54.55
76397;BME280;66045;51.622;5.526;2023-01-15T05:23:47;99894.03;;;16.93;54.17
76397;BME280;66045;51.622;5.526;2023-01-15T05:26:12;99885.22;;;16.91;54.40
76397;BME280;66045;51.622;5.526;2023-01-15T05:28:38;99875.47;;;16.91;54.20
76397;BME280;66045;51.622;5.526;2023-01-15T05:31:23;99884.25;;;16.93;54.26
76397;BME280;66045;51.622;5.526;2023-01-15T05:33:49;99880.84;;;16.90;54.24
76397;BME280;66045;51.622;5.526;2023-01-15T05:36:18;99886.16;;;16.90;54.28
76397;BME280;66045;51.622;5.526;2023-01-15T05:38:44;99872.06;;;16.88;54.01
76397;BME280;66045;51.622;5.526;2023-01-15T05:41:16;99863.22;;;16.87;54.23
76397;BME280;66045;51.622;5.526;2023-01-15T05:44:00;99861.88;;;16.99;54.07
76397;BME280;66045;51.622;5.526;2023-01-15T05:46:26;99861.38;;;16.89;54.04
76397;BME280;66045;51.622;5.526;2023-01-15T05:48:52;99879.13;;;16.89;53.98
76397;BME280;66045;51.622;5.526;2023-01-15T05:51:17;99870.25;;;16.88;54.38
76397;BME280;66045;51.622;5.526;2023-01-15T05:53:43;99886.28;;;16.87;54.38
76397;BME280;66045;51.622;5.526;2023-01-15T05:56:08;99883.63;;;16.87;54.35
76397;BME280;66045;51.622;5.526;2023-01-15T05:58:34;99883.66;;;16.85;54.46
76397;BME280;66045;51.622;5.526;2023-01-15T06:00:59;99883.75;;;16.84;54.17
76397;BME280;66045;51.622;5.526;2023-01-15T06:03:25;99883.75;;;16.84;54.21
76397;BME280;66045;51.622;5.526;2023-01-15T06:05:55;99875.78;;;16.84;54.41
76397;BME280;66045;51.622;5.526;2023-01-15T06:08:21;99877.59;;;16.82;54.21
76397;BME280;66045;51.622;5.526;2023-01-15T06:10:47;99890.03;;;16.81;54.29
76397;BME280;66045;51.622;5.526;2023-01-15T06:13:14;99891.84;;;16.81;54.28
76397;BME280;66045;51.622;5.526;2023-01-15T06:15:39;99889.22;;;16.79;54.25
76397;BME280;66045;51.622;5.526;2023-01-15T06:18:05;99882.19;;;16.78;54.28
76397;BME280;66045;51.622;5.526;2023-01-15T06:20:35;99891.00;;;16.78;54.37
76397;BME280;66045;51.622;5.526;2023-01-15T06:23:01;99893.69;;;16.78;54.23
76397;BME280;66045;51.622;5.526;2023-01-15T06:25:26;99900.78;;;16.78;54.10
76397;BME280;66045;51.622;5.526;2023-01-15T06:27:52;99902.53;;;16.77;54.24
76397;BME280;66045;51.622;5.526;2023-01-15T06:30:17;99907.00;;;16.77;54.32
76397;BME280;66045;51.622;5.526;2023-01-15T06:32:43;99899.94;;;16.76;54.29
76397;BME280;66045;51.622;5.526;2023-01-15T06:35:09;99900.88;;;16.75;54.04
76397;BME280;66045;51.622;5.526;2023-01-15T06:37:34;99895.56;;;16.75;54.20
76397;BME280;66045;51.622;5.526;2023-01-15T06:39:59;99918.53;;;16.76;54.18
76397;BME280;66045;51.622;5.526;2023-01-15T06:42:25;99911.50;;;16.75;54.32
76397;BME280;66045;51.622;5.526;2023-01-15T06:45:10;99914.16;;;16.75;53.80
76397;BME280;66045;51.622;5.526;2023-01-15T06:47:54;99918.56;;;16.74;54.07
76397;BME280;66045;51.622;5.526;2023-01-15T06:50:19;99918.66;;;16.73;54.20
76397;BME280;66045;51.622;5.526;2023-01-15T06:52:45;99908.91;;;16.72;54.17
76397;BME280;66045;51.622;5.526;2023-01-15T06:55:10;99909.00;;;16.70;54.34
76397;BME280;66045;51.622;5.526;2023-01-15T06:57:39;99901.97;;;16.69;54.26
76397;BME280;66045;51.622;5.526;2023-01-15T07:00:08;99902.88;;;16.68;54.17
76397;BME280;66045;51.622;5.526;2023-01-15T07:02:33;99908.13;;;16.70;54.05
76397;BME280;66045;51.622;5.526;2023-01-15T07:04:59;99922.31;;;16.69;54.28
76397;BME280;66045;51.622;5.526;2023-01-15T07:07:26;99933.88;;;16.68;54.30
76397;BME280;66045;51.622;5.526;2023-01-15T07:09:52;99932.16;;;16.67;54.18
76397;BME280;66045;51.622;5.526;2023-01-15T07:12:18;99928.56;;;16.68;53.91
76397;BME280;66045;51.622;5.526;2023-01-15T07:14:44;99925.97;;;16.66;53.98
76397;BME280;66045;51.622;5.526;2023-01-15T07:17:09;99925.09;;;16.66;54.06
76397;BME280;66045;51.622;5.526;2023-01-15T07:19:35;99933.13;;;16.64;54.27
76397;BME280;66045;51.622;5.526;2023-01-15T07:22:01;99930.47;;;16.64;53.94
76397;BME280;66045;51.622;5.526;2023-01-15T07:24:26;99930.47;;;16.64;54.13
76397;BME280;66045;51.622;5.526;2023-01-15T07:26:51;99935.78;;;16.64;53.87
76397;BME280;66045;51.622;5.526;2023-01-15T07:29:17;99933.25;;;16.61;53.77
76397;BME280;66045;51.622;5.526;2023-01-15T07:31:42;99944.66;;;16.63;54.09
76397;BME280;66045;51.622;5.526;2023-01-15T07:34:08;99938.56;;;16.61;54.02
76397;BME280;66045;51.622;5.526;2023-01-15T07:36:34;99939.44;;;16.62;54.12
76397;BME280;66045;51.622;5.526;2023-01-15T07:38:59;99950.94;;;16.61;54.38
76397;BME280;66045;51.622;5.526;2023-01-15T07:41:24;99942.13;;;16.60;54.05
76397;BME280;66045;51.622;5.526;2023-01-15T07:44:10;99943.91;;;16.60;54.04
76397;BME280;66045;51.622;5.526;2023-01-15T07:46:54;99937.75;;;16.59;54.01
76397;BME280;66045;51.622;5.526;2023-01-15T07:49:40;99948.38;;;16.59;53.86
76397;BME280;66045;51.622;5.526;2023-01-15T07:52:10;99944.03;;;16.56;53.97
76397;BME280;66045;51.622;5.526;2023-01-15T07:54:35;99951.06;;;16.58;53.37
76397;BME280;66045;51.622;5.526;2023-01-15T07:57:01;99954.66;;;16.56;53.87
76397;BME280;66045;51.622;5.526;2023-01-15T07:59:26;99948.38;;;16.59;53.89
76397;BME280;66045;51.622;5.526;2023-01-15T08:01:51;99948.41;;;16.58;54.03
76397;BME280;66045;51.622;5.526;2023-01-15T08:04:17;99950.22;;;16.57;53.79
76397;BME280;66045;51.622;5.526;2023-01-15T08:06:42;99961.69;;;16.58;54.04
76397;BME280;66045;51.622;5.526;2023-01-15T08:09:08;99953.72;;;16.58;53.69
76397;BME280;66045;51.622;5.526;2023-01-15T08:11:33;99968.69;;;16.60;53.76
76397;BME280;66045;51.622;5.526;2023-01-15T08:14:18;99954.53;;;16.60;53.67
76397;BME280;66045;51.622;5.526;2023-01-15T08:17:02;99957.16;;;16.61;53.51
76397;BME280;66045;51.622;5.526;2023-01-15T08:19:28;99954.50;;;16.61;53.87
76397;BME280;66045;51.622;5.526;2023-01-15T08:21:55;99967.69;;;16.64;53.76
76397;BME280;66045;51.622;5.526;2023-01-15T08:24:21;99963.22;;;16.65;53.99
76397;BME280;66045;51.622;5.526;2023-01-15T08:26:46;99977.31;;;16.67;53.58
76397;BME280;66045;51.622;5.526;2023-01-15T08:29:11;99978.19;;;16.67;53.83
76397;BME280;66045;51.622;5.526;2023-01-15T08:31:37;99959.53;;;16.69;53.77
76397;BME280;66045;51.622;5.526;2023-01-15T08:34:04;99961.31;;;16.68;53.82
76397;BME280;66045;51.622;5.526;2023-01-15T08:36:29;99966.59;;;16.70;53.65
76397;BME280;66045;51.622;5.526;2023-01-15T08:38:55;99964.84;;;16.69;53.80
76397;BME280;66045;51.622;5.526;2023-01-15T08:41:20;99963.84;;;16.71;53.75
76397;BME280;66045;51.622;5.526;2023-01-15T08:43:45;99952.34;;;16.72;53.62
76397;BME280;66045;51.622;5.526;2023-01-15T08:46:11;99963.81;;;16.73;53.50
76397;BME280;66045;51.622;5.526;2023-01-15T08:48:37;99960.31;;;16.72;53.70
76397;BME280;66045;51.622;5.526;2023-01-15T08:51:04;99963.75;;;16.74;53.94
76397;BME280;66045;51.622;5.526;2023-01-15T08:53:29;99954.91;;;16.74;53.46
76397;BME280;66045;51.622;5.526;2023-01-15T08:55:55;99957.53;;;16.75;53.64
76397;BME280;66045;51.622;5.526;2023-01-15T08:58:20;99950.47;;;16.74;53.06
76397;BME280;66045;51.622;5.526;2023-01-15T09:00:46;99946.91;;;16.75;53.51
76397;BME280;66045;51.622;5.526;2023-01-15T09:03:13;99943.38;;;16.75;53.58
76397;BME280;66045;51.622;5.526;2023-01-15T09:05:38;99944.25;;;16.75;53.26
76397;BME280;66045;51.622;5.526;2023-01-15T09:08:05;99942.50;;;16.74;53.40
76397;BME280;66045;51.622;5.526;2023-01-15T09:10:31;99948.69;;;16.75;53.45
76397;BME280;66045;51.622;5.526;2023-01-15T09:13:00;99947.81;;;16.74;53.30
76397;BME280;66045;51.622;5.526;2023-01-15T09:15:27;99949.56;;;16.75;53.72
76397;BME280;66045;51.622;5.526;2023-01-15T09:17:52;99946.91;;;16.75;53.81
76397;BME280;66045;51.622;5.526;2023-01-15T09:20:18;99954.88;;;16.75;53.32
76397;BME280;66045;51.622;5.526;2023-01-15T09:22:43;99957.53;;;16.75;53.22
76397;BME280;66045;51.622;5.526;2023-01-15T09:25:09;99947.75;;;16.76;53.65
76397;BME280;66045;51.622;5.526;2023-01-15T09:27:34;99957.56;;;16.74;53.48
76397;BME280;66045;51.622;5.526;2023-01-15T09:30:02;99939.91;;;16.73;53.34
76397;BME280;66045;51.622;5.526;2023-01-15T09:32:28;99947.00;;;16.72;53.36
76397;BME280;66045;51.622;5.526;2023-01-15T09:34:53;99957.66;;;16.72;53.55
76397;BME280;66045;51.622;5.526;2023-01-15T09:37:19;99952.34;;;16.72;53.48
76397;BME280;66045;51.622;5.526;2023-01-15T09:39:44;99948.78;;;16.72;53.55
76397;BME280;66045;51.622;5.526;2023-01-15T09:42:28;99939.91;;;16.73;53.53
76397;BME280;66045;51.622;5.526;2023-01-15T09:50:47;99955.84;;;16.73;53.48
76397;BME280;66045;51.622;5.526;2023-01-15T09:53:30;99956.75;;;16.72;53.60
76397;BME280;66045;51.622;5.526;2023-01-15T09:56:02;99950.66;;;16.70;53.21
76397;BME280;66045;51.622;5.526;2023-01-15T09:58:36;99947.13;;;16.69;53.52
76397;BME280;66045;51.622;5.526;2023-01-15T10:01:03;99952.44;;;16.69;53.66
76397;BME280;66045;51.622;5.526;2023-01-15T10:04:06;99957.69;;;16.71;53.49
76397;BME280;66045;51.622;5.526;2023-01-15T10:06:44;99982.56;;;16.68;53.30
76397;BME280;66045;51.622;5.526;2023-01-15T10:09:32;99981.66;;;16.69;53.68
76397;BME280;66045;51.622;5.526;2023-01-15T10:12:10;99975.41;;;16.70;52.83
76397;BME280;66045;51.622;5.526;2023-01-15T10:15:09;99977.16;;;16.71;52.90
76397;BME280;66045;51.622;5.526;2023-01-15T10:17:41;99977.16;;;16.71;53.35
76397;BME280;66045;51.622;5.526;2023-01-15T10:25:26;99970.72;;;16.78;53.69
76397;BME280;66045;51.622;5.526;2023-01-15T10:28:01;99966.28;;;16.79;53.64
76397;BME280;66045;51.622;5.526;2023-01-15T10:30:39;99950.19;;;16.84;54.04
76397;BME280;66045;51.622;5.526;2023-01-15T10:36:14;99968.72;;;16.85;54.21
76397;BME280;66045;51.622;5.526;2023-01-15T10:47:29;99983.63;;;16.89;54.41
76397;BME280;66045;51.622;5.526;2023-01-15T10:49:58;99987.16;;;16.90;54.43
76397;BME280;66045;51.622;5.526;2023-01-15T10:52:32;99968.56;;;16.90;54.27
76397;BME280;66045;51.622;5.526;2023-01-15T10:55:46;99969.53;;;16.87;53.88
76397;BME280;66045;51.622;5.526;2023-01-15T11:00:20;99962.41;;;16.88;54.36
76397;BME280;66045;51.622;5.526;2023-01-15T11:02:55;99964.22;;;16.87;54.43
76397;BME280;66045;51.622;5.526;2023-01-15T11:05:24;99973.06;;;16.88;54.24
76397;BME280;66045;51.622;5.526;2023-01-15T11:07:51;99985.47;;;16.87;54.17
76397;BME280;66045;51.622;5.526;2023-01-15T11:10:19;99981.03;;;16.88;54.45
76397;BME280;66045;51.622;5.526;2023-01-15T11:12:56;99989.00;;;16.88;54.37
76397;BME280;66045;51.622;5.526;2023-01-15T11:15:44;99989.94;;;16.87;54.68
76397;BME280;66045;51.622;5.526;2023-01-15T11:18:33;99997.91;;;16.87;53.90
76397;BME280;66045;51.622;5.526;2023-01-15T11:21:21;99970.47;;;16.86;54.33
76397;BME280;66045;51.622;5.526;2023-01-15T11:23:48;99981.03;;;16.88;54.28
76397;BME280;66045;51.622;5.526;2023-01-15T11:26:23;99987.19;;;16.88;54.62
76397;BME280;66045;51.622;5.526;2023-01-15T11:28:51;99979.31;;;16.87;54.41
76397;BME280;66045;51.622;5.526;2023-01-15T11:31:17;99978.44;;;16.86;54.55
76397;BME280;66045;51.622;5.526;2023-01-15T11:33:45;99987.31;;;16.85;54.82
76397;BME280;66045;51.622;5.526;2023-01-15T11:36:23;99982.06;;;16.84;54.81
76397;BME280;66045;51.622;5.526;2023-01-15T11:38:49;99986.44;;;16.85;54.60
76397;BME280;66045;51.622;5.526;2023-01-15T11:41:28;99992.69;;;16.84;54.39
76397;BME280;66045;51.622;5.526;2023-01-15T11:44:13;99985.59;;;16.84;54.80
76397;BME280;66045;51.622;5.526;2023-01-15T11:46:58;99970.56;;;16.83;53.95
76397;BME280;66045;51.622;5.526;2023-01-15T11:49:50;99974.09;;;16.84;54.75
76397;BME280;66045;51.622;5.526;2023-01-15T11:52:36;99976.75;;;16.84;54.25
76397;BME280;66045;51.622;5.526;2023-01-15T11:55:02;99998.06;;;16.82;54.71
76397;BME280;66045;51.622;5.526;2023-01-15T11:57:35;99988.28;;;16.83;54.80
76397;BME280;66045;51.622;5.526;2023-01-15T12:00:02;99979.53;;;16.81;54.66
76397;BME280;66045;51.622;5.526;2023-01-15T12:05:00;99979.66;;;16.76;54.26
76397;BME280;66045;51.622;5.526;2023-01-15T12:07:28;99991.28;;;16.72;53.20
76397;BME280;66045;51.622;5.526;2023-01-15T12:17:58;99993.91;;;16.73;53.82
76397;BME280;66045;51.622;5.526;2023-01-15T12:28:56;99966.22;;;16.55;53.44
76397;BME280;66045;51.622;5.526;2023-01-15T12:31:51;99976.78;;;16.57;53.63
76397;BME280;66045;51.622;5.526;2023-01-15T12:34:25;99967.13;;;16.54;54.06
76397;BME280;66045;51.622;5.526;2023-01-15T12:37:05;99957.47;;;16.52;54.43
76397;BME280;66045;51.622;5.526;2023-01-15T12:39:46;99954.00;;;16.50;53.88
76397;BME280;66045;51.622;5.526;2023-01-15T12:42:19;99963.00;;;16.46;54.00
76397;BME280;66045;51.622;5.526;2023-01-15T12:45:09;99969.25;;;16.45;54.15
76397;BME280;66045;51.622;5.526;2023-01-15T12:48:01;99968.38;;;16.44;54.40
76397;BME280;66045;51.622;5.526;2023-01-15T12:50:45;99964.78;;;16.45;54.60
76397;BME280;66045;51.622;5.526;2023-01-15T12:53:32;99956.81;;;16.45;54.05
76397;BME280;66045;51.622;5.526;2023-01-15T12:56:16;99974.56;;;16.45;53.74
76397;BME280;66045;51.622;5.526;2023-01-15T13:04:07;99971.16;;;16.41;53.87
76397;BME280;66045;51.622;5.526;2023-01-15T13:06:38;99974.69;;;16.40;54.46
76397;BME280;66045;51.622;5.526;2023-01-15T13:09:25;99963.19;;;16.41;54.24
76397;BME280;66045;51.622;5.526;2023-01-15T13:11:52;99965.72;;;16.44;54.18
76397;BME280;66045;51.622;5.526;2023-01-15T13:14:18;99959.44;;;16.47;54.32
76397;BME280;66045;51.622;5.526;2023-01-15T13:21:56;99967.78;;;16.61;53.62
76397;BME280;66045;51.622;5.526;2023-01-15T13:24:31;99955.78;;;16.74;53.55
76397;BME280;66045;51.622;5.526;2023-01-15T13:27:10;99970.78;;;16.77;53.17
76397;BME280;66045;51.622;5.526;2023-01-15T13:32:13;99960.59;;;16.90;52.83
76397;BME280;66045;51.622;5.526;2023-01-15T13:37:29;99961.88;;;17.03;52.74
76397;BME280;66045;51.622;5.526;2023-01-15T13:39:58;99974.22;;;17.04;51.69
76397;BME280;66045;51.622;5.526;2023-01-15T13:42:26;99987.16;;;17.13;52.27
76397;BME280;66045;51.622;5.526;2023-01-15T13:45:30;99959.91;;;17.32;52.56
76397;BME280;66045;51.622;5.526;2023-01-15T13:47:55;99975.09;;;17.52;52.85
76397;BME280;66045;51.622;5.526;2023-01-15T13:50:34;99968.22;;;17.68;52.40
76397;BME280;66045;51.622;5.526;2023-01-15T13:53:04;99965.09;;;17.80;52.18
76397;BME280;66045;51.622;5.526;2023-01-15T13:55:34;99979.69;;;17.92;51.73
76397;BME280;66045;51.622;5.526;2023-01-15T13:58:00;99967.06;;;17.97;50.66
76397;BME280;66045;51.622;5.526;2023-01-15T14:00:34;99975.47;;;18.08;50.48
76397;BME280;66045;51.622;5.526;2023-01-15T14:03:27;99974.31;;;18.16;50.72
76397;BME280;66045;51.622;5.526;2023-01-15T14:05:57;99991.69;;;18.24;50.15
76397;BME280;66045;51.622;5.526;2023-01-15T14:08:35;99980.78;;;18.30;50.26
76397;BME280;66045;51.622;5.526;2023-01-15T14:11:00;99972.53;;;18.37;49.51
76397;BME280;66045;51.622;5.526;2023-01-15T14:13:49;99979.47;;;18.41;49.50
76397;BME280;66045;51.622;5.526;2023-01-15T14:19:40;99980.94;;;18.48;49.94
76397;BME280;66045;51.622;5.526;2023-01-15T14:22:10;99987.94;;;18.50;49.04
76397;BME280;66045;51.622;5.526;2023-01-15T14:24:55;99986.13;;;18.51;49.18
76397;BME280;66045;51.622;5.526;2023-01-15T14:30:05;99992.66;;;18.64;48.22
76397;BME280;66045;51.622;5.526;2023-01-15T14:32:41;99975.66;;;18.67;48.26
76397;BME280;66045;51.622;5.526;2023-01-15T14:35:18;99990.66;;;18.69;48.23
76397;BME280;66045;51.622;5.526;2023-01-15T14:37:57;99991.38;;;18.73;48.65
76397;BME280;66045;51.622;5.526;2023-01-15T14:40:28;99989.50;;;18.76;47.38
76397;BME280;66045;51.622;5.526;2023-01-15T14:42:56;99999.16;;;18.79;47.51
76397;BME280;66045;51.622;5.526;2023-01-15T14:45:46;99991.03;;;18.82;47.90
76397;BME280;66045;51.622;5.526;2023-01-15T14:51:09;99999.91;;;18.83;47.42